Terminal Aerodrome Forecast
Issued by NWS Charleston, WV

Current Version | Previous Version | Graphics & Text | Print | Product List | Glossary On
Versions: 1 2 3 4 5 6 7 8 9 10 11 12 13 14 15 16 17 18 19 20 21 22 23 24 25 26 27
000
FTUS41 KRLX 261731
TAFCRW
TAF
KCRW 261731Z 2618/2718 23007G15KT P6SM BKN050
      TEMPO 2618/2619 BKN025
     FM262000 22007KT P6SM BKN045
     FM270100 VRB03KT P6SM SCT050
     FM270700 00000KT 6SM BR SCT070
     FM270900 00000KT 4SM BR SCT080
     FM271300 22005KT P6SM SCT050=

USA.gov is the U.S. government's official web portal to all federal, state and local government web resources and services.